createdAt,value
2022-10-07T00:01:14.049Z,32.75
2022-10-07T00:03:42.374Z,32.60
2022-10-07T00:06:14.441Z,32.08
2022-10-07T00:08:44.518Z,30.77
2022-10-07T00:11:14.725Z,29.77
2022-10-07T00:13:44.528Z,31.40
2022-10-07T00:16:17.500Z,30.75
2022-10-07T00:18:46.105Z,28.88
2022-10-07T00:21:15.751Z,28.90
2022-10-07T00:23:45.890Z,26.50
2022-10-07T00:26:16.838Z,26.90
2022-10-07T00:28:45.583Z,25.83
2022-10-07T00:31:18.256Z,23.98
2022-10-07T00:33:47.002Z,24.55
2022-10-07T00:36:18.981Z,25.02
2022-10-07T00:38:50.684Z,23.80
2022-10-07T00:41:20.875Z,24.50
2022-10-07T00:43:49.776Z,26.50
2022-10-07T00:46:29.323Z,25.13
2022-10-07T00:48:59.583Z,23.60
2022-10-07T00:51:28.123Z,23.52
2022-10-07T00:53:57.597Z,22.50
2022-10-07T00:56:28.167Z,23.63
2022-10-07T00:58:58.888Z,23.08
2022-10-07T01:01:28.620Z,21.48
2022-10-07T01:03:56.714Z,21.23
2022-10-07T01:06:25.851Z,20.02
2022-10-07T01:08:55.632Z,20.60
2022-10-07T01:11:39.932Z,19.63
2022-10-07T01:14:13.578Z,19.40
2022-10-07T01:16:55.269Z,19.05
2022-10-07T01:19:41.985Z,19.67
2022-10-07T01:22:26.435Z,18.60
2022-10-07T01:25:14.067Z,17.63
2022-10-07T01:27:49.671Z,18.52
2022-10-07T01:30:20.384Z,17.98
2022-10-07T01:32:54.438Z,18.63
2022-10-07T01:35:27.152Z,18.50
2022-10-07T01:38:00.170Z,16.65
2022-10-07T01:40:34.486Z,17.35
2022-10-07T01:43:04.208Z,18.40
2022-10-07T01:45:35.338Z,17.88
2022-10-07T01:48:04.083Z,17.73
2022-10-07T01:50:34.505Z,18.70
2022-10-07T01:53:31.933Z,17.08
2022-10-07T01:56:14.728Z,18.58
2022-10-07T01:59:02.248Z,18.88
2022-10-07T02:01:36.188Z,18.23
2022-10-07T02:04:23.459Z,18.30
2022-10-07T02:07:00.094Z,19.98
2022-10-07T02:09:34.443Z,20.73
2022-10-07T02:12:10.307Z,20.75
2022-10-07T02:14:45.237Z,20.00
2022-10-07T02:17:18.874Z,19.83
2022-10-07T02:19:50.309Z,17.80
2022-10-07T02:22:19.673Z,19.80
2022-10-07T02:24:49.854Z,20.05
2022-10-07T02:27:24.511Z,19.25
2022-10-07T02:30:02.374Z,19.02
2022-10-07T02:32:33.065Z,20.48
2022-10-07T02:35:06.418Z,18.88
2022-10-07T02:37:38.606Z,18.90
2022-10-07T02:40:12.202Z,18.77
2022-10-07T02:42:47.884Z,20.58
2022-10-07T02:47:59.064Z,20.83
2022-10-07T02:50:32.069Z,20.73
2022-10-07T02:53:03.816Z,21.85
2022-10-07T02:55:33.455Z,21.83
2022-10-07T02:58:05.079Z,21.13
2022-10-07T03:00:39.858Z,22.58
2022-10-07T03:03:09.531Z,23.40
2022-10-07T03:05:46.637Z,20.90
2022-10-07T03:08:14.760Z,18.67
2022-10-07T03:10:44.564Z,20.08
2022-10-07T03:13:15.631Z,20.77
2022-10-07T03:15:50.304Z,20.50
2022-10-07T03:18:29.364Z,19.23
2022-10-07T03:21:17.630Z,21.67
2022-10-07T03:23:52.281Z,19.70
2022-10-07T03:26:22.665Z,20.23
2022-10-07T03:28:52.187Z,20.05
2022-10-07T03:31:22.985Z,19.65
2022-10-07T03:33:55.308Z,21.10
2022-10-07T03:36:24.457Z,19.85
2022-10-07T03:38:52.667Z,19.17
2022-10-07T03:41:21.520Z,22.30
2022-10-07T03:43:52.803Z,20.83
2022-10-07T03:46:24.845Z,21.13
2022-10-07T03:48:53.369Z,23.05
2022-10-07T03:51:21.830Z,23.55
2022-10-07T03:53:54.254Z,22.00
2022-10-07T03:56:22.627Z,22.25
2022-10-07T03:58:52.788Z,22.10
2022-10-07T04:01:20.930Z,22.30
2022-10-07T04:03:55.828Z,20.27
2022-10-07T04:06:24.790Z,23.85
2022-10-07T04:08:54.016Z,21.90
2022-10-07T04:11:22.343Z,20.90
2022-10-07T04:13:52.808Z,20.50
2022-10-07T04:16:23.702Z,22.02
2022-10-07T04:18:57.040Z,22.92
2022-10-07T04:21:27.664Z,21.05
2022-10-07T04:23:55.687Z,23.95
2022-10-07T04:26:24.133Z,24.80
2022-10-07T04:28:52.609Z,23.92
2022-10-07T04:31:23.906Z,24.42
2022-10-07T04:34:01.817Z,22.60
2022-10-07T04:36:34.664Z,22.88
2022-10-07T04:39:14.702Z,24.45
2022-10-07T04:41:51.145Z,25.60
2022-10-07T04:44:23.351Z,23.48
2022-10-07T04:46:56.916Z,30.02
2022-10-07T04:49:29.054Z,24.30
2022-10-07T04:51:59.643Z,26.65
2022-10-07T04:54:33.725Z,25.88
2022-10-07T04:57:01.742Z,29.15
2022-10-07T04:59:30.461Z,27.17
2022-10-07T05:01:59.644Z,25.10
2022-10-07T05:04:30.568Z,26.95
2022-10-07T05:06:59.500Z,26.50
2022-10-07T05:09:28.209Z,27.13
2022-10-07T05:11:57.819Z,26.95
2022-10-07T05:14:25.878Z,27.75
2022-10-07T05:16:54.556Z,27.77
2022-10-07T05:19:26.282Z,26.95
2022-10-07T05:21:56.880Z,28.48
2022-10-07T05:24:26.697Z,27.50
2022-10-07T05:26:54.719Z,28.38
2022-10-07T05:29:23.476Z,29.50
2022-10-07T05:31:53.607Z,28.20
2022-10-07T05:34:25.073Z,26.83
2022-10-07T05:36:56.142Z,28.23
2022-10-07T05:39:24.772Z,28.08
2022-10-07T05:42:06.865Z,29.55
2022-10-07T05:44:41.470Z,27.20
2022-10-07T05:47:09.872Z,30.98
2022-10-07T05:49:38.756Z,30.50
2022-10-07T05:52:08.466Z,30.33
2022-10-07T05:54:37.112Z,32.55
2022-10-07T05:57:05.398Z,29.05
2022-10-07T05:59:35.482Z,29.50
2022-10-07T06:02:04.880Z,28.63
2022-10-07T06:04:33.951Z,27.08
2022-10-07T06:07:04.160Z,28.63
2022-10-07T06:09:51.306Z,26.75
2022-10-07T06:12:37.189Z,27.30
2022-10-07T06:15:10.908Z,23.52
2022-10-07T06:17:45.510Z,23.02
2022-10-07T06:20:16.622Z,23.58
2022-10-07T06:22:45.958Z,26.40
2022-10-07T06:25:17.396Z,24.83
2022-10-07T06:27:52.727Z,26.35
2022-10-07T06:30:22.495Z,24.98
2022-10-07T06:32:50.713Z,25.92
2022-10-07T06:35:18.902Z,24.02
2022-10-07T06:37:47.751Z,23.52
2022-10-07T06:40:25.104Z,23.30
2022-10-07T06:42:53.749Z,23.70
2022-10-07T06:45:21.707Z,19.50
2022-10-07T06:47:53.892Z,18.65
2022-10-07T06:50:24.649Z,18.20
2022-10-07T06:52:53.704Z,18.02
2022-10-07T06:55:23.997Z,16.35
2022-10-07T06:57:51.972Z,17.52
2022-10-07T07:00:21.767Z,17.02
2022-10-07T07:02:50.599Z,14.90
2022-10-07T07:05:19.282Z,17.73
2022-10-07T07:07:48.897Z,20.33
2022-10-07T07:10:18.041Z,23.20
2022-10-07T07:12:53.556Z,22.67
2022-10-07T07:15:22.174Z,23.27
2022-10-07T07:17:50.380Z,26.05
2022-10-07T07:20:19.028Z,25.52
2022-10-07T07:22:47.453Z,24.15
2022-10-07T07:25:15.601Z,25.70
2022-10-07T07:27:44.037Z,25.42
2022-10-07T07:30:15.383Z,25.08
2022-10-07T07:32:45.814Z,25.45
2022-10-07T07:35:14.112Z,27.08
2022-10-07T07:37:42.834Z,23.27
2022-10-07T07:40:11.456Z,23.70
2022-10-07T07:42:39.496Z,25.17
2022-10-07T07:45:10.656Z,25.52
2022-10-07T07:47:40.986Z,24.60
2022-10-07T07:50:10.314Z,23.67
2022-10-07T07:52:38.911Z,25.17
2022-10-07T07:55:08.988Z,22.98
2022-10-07T07:57:38.074Z,24.33
2022-10-07T08:00:11.306Z,24.15
2022-10-07T08:02:56.190Z,25.00
2022-10-07T08:05:25.386Z,24.65
2022-10-07T08:07:57.270Z,24.27
2022-10-07T08:10:27.142Z,24.38
2022-10-07T08:12:56.350Z,24.35
2022-10-07T08:15:24.999Z,25.80
2022-10-07T08:17:53.807Z,25.02
2022-10-07T08:20:23.351Z,22.58
2022-10-07T08:22:58.193Z,20.83
2022-10-07T08:25:28.532Z,23.33
2022-10-07T08:27:57.909Z,20.80
2022-10-07T08:30:26.346Z,20.75
2022-10-07T08:32:59.018Z,19.60
2022-10-07T08:35:30.526Z,20.45
2022-10-07T08:37:58.537Z,20.02
2022-10-07T08:40:27.723Z,19.23
2022-10-07T08:42:56.204Z,18.48
2022-10-07T08:45:31.832Z,17.83
2022-10-07T08:48:03.623Z,18.55
2022-10-07T08:50:44.136Z,19.08
2022-10-07T08:53:20.592Z,17.88
2022-10-07T08:55:55.628Z,17.58
2022-10-07T09:01:08.398Z,14.32
2022-10-07T09:03:43.991Z,15.48
2022-10-07T09:06:18.014Z,15.40
2022-10-07T09:08:49.228Z,15.13
2022-10-07T09:11:25.665Z,16.48
2022-10-07T09:14:00.711Z,16.15
2022-10-07T09:16:33.292Z,16.20
2022-10-07T09:19:03.888Z,15.55
2022-10-07T09:21:41.523Z,16.95
2022-10-07T09:24:19.903Z,15.23
2022-10-07T09:26:48.387Z,14.93
2022-10-07T09:29:20.407Z,16.00
2022-10-07T09:31:49.384Z,15.25
2022-10-07T09:34:23.375Z,15.55
2022-10-07T09:37:14.502Z,16.13
2022-10-07T09:39:43.645Z,16.25
2022-10-07T09:42:29.897Z,15.45
2022-10-07T09:45:01.865Z,15.95
2022-10-07T09:47:37.207Z,14.35
2022-10-07T09:50:05.898Z,15.00
2022-10-07T09:52:36.040Z,13.00
2022-10-07T09:55:32.022Z,14.05
2022-10-07T09:58:01.297Z,13.65
2022-10-07T10:00:30.723Z,13.35
2022-10-07T10:03:05.815Z,13.75
2022-10-07T10:05:36.940Z,12.68
2022-10-07T10:08:18.772Z,13.45
2022-10-07T10:10:52.376Z,14.13
2022-10-07T10:13:30.611Z,11.57
2022-10-07T10:15:59.565Z,11.13
2022-10-07T10:18:39.815Z,12.23
2022-10-07T10:21:29.758Z,13.07
2022-10-07T10:24:01.331Z,13.57
2022-10-07T10:26:46.770Z,14.98
2022-10-07T10:29:50.498Z,15.57
2022-10-07T10:33:04.462Z,13.75
2022-10-07T10:35:36.987Z,14.63
2022-10-07T10:38:30.091Z,15.85
2022-10-07T10:41:08.504Z,14.68
2022-10-07T10:43:51.869Z,14.65
2022-10-07T10:46:36.807Z,14.85
2022-10-07T10:49:20.158Z,13.73
2022-10-07T10:52:02.886Z,15.45
2022-10-07T10:54:44.617Z,14.75
2022-10-07T10:57:23.298Z,16.73
2022-10-07T11:00:05.306Z,14.35
2022-10-07T11:02:59.700Z,14.20
2022-10-07T11:05:32.065Z,15.13
2022-10-07T11:08:05.101Z,14.15
2022-10-07T11:10:37.556Z,15.50
2022-10-07T11:13:23.288Z,15.10
2022-10-07T11:15:57.640Z,14.70
2022-10-07T11:18:38.085Z,14.43
2022-10-07T11:21:12.584Z,13.88
2022-10-07T11:23:50.281Z,12.68
2022-10-07T11:26:24.227Z,14.82
2022-10-07T11:28:54.885Z,14.53
2022-10-07T11:31:32.460Z,15.25
2022-10-07T11:34:17.095Z,14.32
2022-10-07T11:36:53.733Z,15.10
2022-10-07T11:39:22.883Z,15.63
2022-10-07T11:41:56.611Z,14.60
2022-10-07T11:44:33.245Z,15.07
2022-10-07T11:47:04.143Z,15.52
2022-10-07T11:49:38.338Z,13.90
2022-10-07T11:52:11.749Z,14.77
2022-10-07T11:54:44.318Z,14.77
2022-10-07T11:57:22.015Z,13.88
2022-10-07T11:59:58.200Z,14.65
2022-10-07T12:02:44.707Z,13.88
2022-10-07T12:05:57.628Z,16.30
2022-10-07T12:08:29.677Z,14.18
2022-10-07T12:11:38.288Z,14.13
2022-10-07T12:14:31.505Z,14.43
2022-10-07T12:16:59.644Z,14.30
2022-10-07T12:19:27.689Z,13.18
2022-10-07T12:22:18.923Z,14.05
2022-10-07T12:25:11.422Z,14.10
2022-10-07T12:27:47.302Z,14.73
2022-10-07T12:30:49.632Z,15.23
2022-10-07T12:33:29.933Z,14.52
2022-10-07T12:35:58.011Z,15.50
2022-10-07T12:38:29.314Z,15.48
2022-10-07T12:41:25.598Z,14.68
2022-10-07T12:44:06.344Z,16.90
2022-10-07T12:46:47.761Z,16.48
2022-10-07T12:49:21.871Z,15.00
2022-10-07T12:51:53.818Z,14.35
2022-10-07T12:54:30.031Z,13.10
2022-10-07T12:56:58.103Z,16.27
2022-10-07T12:59:47.662Z,14.82
2022-10-07T13:02:43.969Z,14.35
2022-10-07T13:05:39.004Z,14.93
2022-10-07T13:08:46.076Z,14.43
2022-10-07T13:11:53.339Z,14.20
2022-10-07T13:14:28.088Z,14.85
2022-10-07T13:17:06.593Z,15.18
2022-10-07T13:19:44.765Z,16.38
2022-10-07T13:22:15.843Z,15.20
2022-10-07T13:24:50.104Z,16.27
2022-10-07T13:27:21.436Z,16.20
2022-10-07T13:29:49.435Z,16.52
2022-10-07T13:32:24.271Z,15.27
2022-10-07T13:37:27.801Z,14.23
2022-10-07T13:39:56.141Z,14.52
2022-10-07T13:42:29.050Z,15.60
2022-10-07T13:45:02.233Z,14.70
2022-10-07T13:47:33.920Z,13.52
2022-10-07T13:50:04.094Z,15.85
2022-10-07T13:52:35.804Z,15.82
2022-10-07T13:55:19.537Z,15.82
2022-10-07T13:57:48.113Z,15.45
2022-10-07T14:00:17.543Z,15.60
2022-10-07T14:02:48.273Z,15.02
2022-10-07T14:05:23.092Z,16.27
2022-10-07T14:07:55.030Z,15.68
2022-10-07T14:10:26.287Z,14.85
2022-10-07T14:12:58.670Z,15.95
2022-10-07T14:15:29.215Z,16.10
2022-10-07T14:18:00.443Z,15.02
2022-10-07T14:20:33.231Z,14.73
2022-10-07T14:23:04.030Z,12.75
2022-10-07T14:25:40.807Z,13.38
2022-10-07T14:28:18.794Z,14.23
2022-10-07T14:31:05.281Z,14.45
2022-10-07T14:34:01.134Z,14.40
2022-10-07T14:36:30.958Z,13.30
2022-10-07T14:39:03.331Z,14.48
2022-10-07T14:41:32.664Z,13.77
2022-10-07T14:44:03.793Z,12.70
2022-10-07T14:46:32.074Z,12.40
2022-10-07T14:49:00.577Z,11.20
2022-10-07T14:51:31.296Z,11.95
2022-10-07T14:54:03.818Z,12.65
2022-10-07T14:56:33.991Z,11.95
2022-10-07T14:59:02.072Z,12.18
2022-10-07T15:01:31.017Z,11.82
2022-10-07T15:03:59.939Z,11.93
2022-10-07T15:06:30.141Z,12.85
2022-10-07T15:08:58.221Z,14.05
2022-10-07T15:11:26.320Z,14.05
2022-10-07T15:13:54.332Z,13.65
2022-10-07T15:16:25.418Z,13.63
2022-10-07T15:18:54.147Z,13.98
2022-10-07T15:21:23.323Z,14.13
2022-10-07T15:23:54.007Z,14.38
2022-10-07T15:26:24.707Z,15.57
2022-10-07T15:28:55.274Z,15.63
2022-10-07T15:31:26.080Z,14.88
2022-10-07T15:33:57.956Z,16.05
2022-10-07T15:36:27.521Z,15.32
2022-10-07T15:38:57.173Z,19.35
2022-10-07T15:41:33.903Z,20.85
2022-10-07T15:44:03.890Z,18.45
2022-10-07T15:46:32.547Z,14.63
2022-10-07T15:49:01.133Z,16.80
2022-10-07T15:51:29.501Z,14.48
2022-10-07T15:53:59.497Z,16.05
2022-10-07T15:56:27.687Z,15.77
2022-10-07T15:58:55.875Z,16.73
2022-10-07T16:01:26.479Z,17.35
2022-10-07T16:03:54.739Z,18.55
2022-10-07T16:06:24.855Z,20.42
2022-10-07T16:08:55.941Z,25.10
2022-10-07T16:11:26.512Z,19.50
2022-10-07T16:13:54.837Z,18.88
2022-10-07T16:16:24.964Z,18.20
2022-10-07T16:18:54.945Z,18.20
2022-10-07T16:21:24.436Z,16.95
2022-10-07T16:23:56.733Z,18.65
2022-10-07T16:26:30.077Z,19.00
2022-10-07T16:29:18.733Z,18.92
2022-10-07T16:31:48.997Z,17.92
2022-10-07T16:34:18.370Z,18.25
2022-10-07T16:36:48.849Z,18.45
2022-10-07T16:39:19.125Z,20.48
2022-10-07T16:41:49.980Z,19.65
2022-10-07T16:44:18.247Z,19.08
2022-10-07T16:46:46.464Z,18.02
2022-10-07T16:49:17.255Z,19.75
2022-10-07T16:51:46.511Z,19.20
2022-10-07T16:54:16.967Z,19.80
2022-10-07T16:56:48.106Z,19.35
2022-10-07T16:59:23.143Z,19.88
2022-10-07T17:01:53.757Z,20.20
2022-10-07T17:04:22.255Z,21.10
2022-10-07T17:06:50.533Z,19.45
2022-10-07T17:09:18.680Z,20.30
2022-10-07T17:11:47.563Z,18.70
2022-10-07T17:14:19.335Z,18.50
2022-10-07T17:16:49.106Z,18.70
2022-10-07T17:19:19.567Z,18.42
2022-10-07T17:21:48.914Z,18.05
2022-10-07T17:24:17.930Z,22.85
2022-10-07T17:26:47.160Z,20.25
2022-10-07T17:29:18.207Z,26.00
2022-10-07T17:31:51.016Z,18.83
2022-10-07T17:34:21.386Z,20.77
2022-10-07T17:36:50.529Z,20.13
2022-10-07T17:39:19.541Z,20.65
2022-10-07T17:41:49.794Z,20.40
2022-10-07T17:44:18.587Z,26.13
2022-10-07T17:46:49.141Z,23.40
2022-10-07T17:49:17.281Z,38.05
2022-10-07T17:51:45.268Z,27.80
2022-10-07T17:54:14.977Z,24.75
2022-10-07T17:56:44.475Z,25.98
2022-10-07T17:59:12.658Z,24.05
2022-10-07T18:01:41.583Z,43.45
2022-10-07T18:04:14.918Z,30.17
2022-10-07T18:06:43.886Z,43.10
2022-10-07T18:09:15.200Z,32.15
2022-10-07T18:12:01.014Z,34.00
2022-10-07T18:14:49.892Z,31.35
2022-10-07T18:17:21.554Z,32.90
2022-10-07T18:19:51.986Z,31.42
2022-10-07T18:22:20.415Z,33.67
2022-10-07T18:24:48.858Z,39.67
2022-10-07T18:27:16.970Z,36.50
2022-10-07T18:29:45.841Z,49.35
2022-10-07T18:32:15.886Z,44.42
2022-10-07T18:34:45.686Z,36.38
2022-10-07T18:37:16.638Z,45.00
2022-10-07T18:39:44.753Z,45.80
2022-10-07T18:42:12.713Z,41.00
2022-10-07T18:44:40.680Z,43.53
2022-10-07T18:47:08.768Z,42.20
2022-10-07T18:49:36.871Z,47.55
2022-10-07T18:52:07.298Z,45.53
2022-10-07T18:54:36.680Z,45.47
2022-10-07T18:57:04.948Z,43.63
2022-10-07T18:59:32.949Z,42.70
2022-10-07T19:02:01.196Z,41.80
2022-10-07T19:04:30.929Z,42.55
2022-10-07T19:06:58.944Z,40.60
2022-10-07T19:09:27.200Z,40.40
2022-10-07T19:11:56.712Z,42.45
2022-10-07T19:14:26.004Z,42.60
2022-10-07T19:16:54.313Z,40.78
2022-10-07T19:19:23.858Z,42.17
2022-10-07T19:21:53.327Z,43.50
2022-10-07T19:24:41.991Z,42.72
2022-10-07T19:27:11.414Z,41.53
2022-10-07T19:29:39.499Z,39.45
2022-10-07T19:32:08.884Z,41.17
2022-10-07T19:34:37.668Z,43.13
2022-10-07T19:37:05.711Z,41.35
2022-10-07T19:39:34.202Z,45.85
2022-10-07T19:42:02.638Z,43.40
2022-10-07T19:44:33.568Z,45.70
2022-10-07T19:47:01.864Z,43.47
2022-10-07T19:49:29.831Z,48.08
2022-10-07T19:51:57.823Z,56.78
2022-10-07T19:54:25.789Z,47.05
2022-10-07T19:56:53.855Z,53.97
2022-10-07T19:59:22.181Z,50.50
2022-10-07T20:01:51.989Z,50.53
2022-10-07T20:04:21.174Z,50.00
2022-10-07T20:06:50.422Z,50.03
2022-10-07T20:09:20.064Z,49.88
2022-10-07T20:11:48.295Z,48.60
2022-10-07T20:14:16.507Z,47.88
2022-10-07T20:16:44.786Z,49.03
2022-10-07T20:19:18.807Z,47.05
2022-10-07T20:21:47.269Z,48.33
2022-10-07T20:24:17.258Z,45.08
2022-10-07T20:26:46.281Z,43.38
2022-10-07T20:29:16.181Z,45.72
2022-10-07T20:31:44.850Z,48.53
2022-10-07T20:34:16.166Z,45.88
2022-10-07T20:36:45.573Z,52.72
2022-10-07T20:39:35.769Z,54.35
2022-10-07T20:42:22.453Z,51.83
2022-10-07T20:44:51.612Z,51.22
2022-10-07T20:47:21.917Z,54.40
2022-10-07T20:49:51.589Z,60.25
2022-10-07T20:52:21.785Z,57.97
2022-10-07T20:54:50.705Z,51.97
2022-10-07T20:57:21.436Z,50.50
2022-10-07T20:59:49.992Z,57.17
2022-10-07T21:02:21.287Z,62.50
2022-10-07T21:04:49.527Z,66.03
2022-10-07T21:07:19.862Z,65.60
2022-10-07T21:09:48.688Z,75.00
2022-10-07T21:12:18.307Z,71.82
2022-10-07T21:14:48.468Z,74.20
2022-10-07T21:17:16.759Z,70.20
2022-10-07T21:19:45.022Z,72.43
2022-10-07T21:22:13.227Z,71.00
2022-10-07T21:24:42.648Z,69.72
2022-10-07T21:27:10.797Z,75.78
2022-10-07T21:29:41.027Z,75.68
2022-10-07T21:32:09.857Z,73.15
2022-10-07T21:34:37.959Z,72.93
2022-10-07T21:37:06.026Z,72.07
2022-10-07T21:39:34.174Z,73.18
2022-10-07T21:42:04.092Z,77.13
2022-10-07T21:44:33.475Z,75.78
2022-10-07T21:47:01.580Z,80.80
2022-10-07T21:49:29.594Z,72.35
2022-10-07T21:51:57.451Z,68.50
2022-10-07T21:54:26.216Z,69.63
2022-10-07T21:56:54.121Z,67.60
2022-10-07T21:59:25.104Z,64.88
2022-10-07T22:01:53.115Z,60.72
2022-10-07T22:04:21.302Z,62.90
2022-10-07T22:07:06.728Z,64.47
2022-10-07T22:09:35.782Z,61.50
2022-10-07T22:12:03.805Z,59.92
2022-10-07T22:14:33.160Z,60.20
2022-10-07T22:17:01.189Z,56.53
2022-10-07T22:19:29.107Z,57.83
2022-10-07T22:21:57.135Z,58.13
2022-10-07T22:24:25.353Z,59.40
2022-10-07T22:26:53.465Z,59.53
2022-10-07T22:29:23.063Z,58.00
2022-10-07T22:31:52.452Z,59.30
2022-10-07T22:34:38.225Z,58.22
2022-10-07T22:37:06.527Z,57.33
2022-10-07T22:39:34.605Z,55.08
2022-10-07T22:42:03.758Z,57.88
2022-10-07T22:44:31.936Z,56.67
2022-10-07T22:47:02.256Z,57.00
2022-10-07T22:49:31.381Z,55.13
2022-10-07T22:52:00.315Z,54.90
2022-10-07T22:54:29.456Z,57.47
2022-10-07T22:56:57.489Z,57.40
2022-10-07T22:59:25.585Z,55.72
2022-10-07T23:01:53.700Z,56.05
2022-10-07T23:04:23.117Z,53.25
2022-10-07T23:06:51.153Z,54.47
2022-10-07T23:09:19.272Z,55.50
2022-10-07T23:11:47.250Z,55.72
2022-10-07T23:14:15.341Z,55.30
2022-10-07T23:16:44.287Z,56.60
2022-10-07T23:19:12.479Z,57.30
2022-10-07T23:21:41.808Z,59.10
2022-10-07T23:24:10.226Z,58.05
2022-10-07T23:26:38.765Z,60.47
2022-10-07T23:29:08.330Z,57.83
2022-10-07T23:31:36.652Z,57.58
2022-10-07T23:34:05.321Z,59.00
2022-10-07T23:36:34.745Z,57.88
2022-10-07T23:39:04.492Z,56.10
2022-10-07T23:41:33.015Z,56.50
2022-10-07T23:44:03.005Z,57.10
2022-10-07T23:46:35.050Z,56.65
2022-10-07T23:49:04.152Z,54.53
2022-10-07T23:51:32.713Z,57.47
2022-10-07T23:54:02.247Z,56.97
2022-10-07T23:56:33.670Z,55.42
2022-10-07T23:59:02.444Z,55.05
